Time;durP1;ratioP1;P1;durP2;ratioP2;P2;SDS_P1;SDS_P2;PMS_P1;PMS_P2;Temp;Humidity;BMP_temperature;BMP_pressure;BME280_temperature;BME280_humidity;BME280_pressure;Samples;Min_cycle;Max_cycle;Signal;HPM_P1;HPM_P2
2022/07/27 04:01:25;;;;;;;6.53;3.80;;;16.10;99.90;;;;;;5494668;23;20558;-72
2022/07/27 04:03:50;;;;;;;4.90;3.70;;;16.20;99.90;;;;;;4975505;28;20035;-72
2022/07/27 04:06:16;;;;;;;6.38;4.30;;;16.20;99.90;;;;;;4974972;28;20035;-75
2022/07/27 04:08:42;;;;;;;5.38;3.97;;;16.20;99.90;;;;;;4983342;28;20066;-73
2022/07/27 04:11:07;;;;;;;4.47;4.07;;;16.20;99.90;;;;;;4994471;28;20035;-72
2022/07/27 04:13:33;;;;;;;4.65;3.90;;;16.10;99.90;;;;;;4995196;28;20432;-72
2022/07/27 04:15:58;;;;;;;7.13;4.70;;;16.10;99.90;;;;;;4995078;28;20035;-72
2022/07/27 04:18:24;;;;;;;5.13;4.20;;;16.00;99.90;;;;;;4994220;28;20034;-72
2022/07/27 04:20:49;;;;;;;6.90;4.35;;;16.00;99.90;;;;;;4994063;28;20128;-72
2022/07/27 04:23:15;;;;;;;7.22;4.32;;;16.00;99.90;;;;;;4992431;28;20047;-75
2022/07/27 04:25:40;;;;;;;5.10;4.45;;;15.80;99.90;;;;;;4992222;28;20565;-71
2022/07/27 04:28:06;;;;;;;5.15;4.60;;;15.80;99.90;;;;;;4992389;28;20041;-72
2022/07/27 04:30:31;;;;;;;4.90;4.40;;;15.80;99.90;;;;;;4993708;28;20027;-74
2022/07/27 04:32:57;;;;;;;5.25;4.78;;;15.70;99.90;;;;;;4994722;28;20031;-72
2022/07/27 04:35:23;;;;;;;7.78;4.85;;;15.80;99.90;;;;;;4992968;28;20035;-72
2022/07/27 04:37:48;;;;;;;6.75;5.32;;;15.80;99.90;;;;;;4994328;28;20066;-72
2022/07/27 04:40:14;;;;;;;4.95;4.43;;;15.80;99.90;;;;;;4994319;28;20058;-75
2022/07/27 04:42:40;;;;;;;4.80;4.40;;;15.80;99.90;;;;;;4994537;28;20041;-72
2022/07/27 04:45:06;;;;;;;7.53;5.10;;;15.90;99.90;;;;;;4994502;28;20110;-72
2022/07/27 04:47:32;;;;;;;5.68;4.50;;;15.90;99.90;;;;;;4994416;28;20059;-72
2022/07/27 04:50:00;;;;;;;5.10;4.60;;;16.00;99.90;;;;;;4992988;28;20466;-72
2022/07/27 04:52:25;;;;;;;5.78;5.03;;;16.10;99.90;;;;;;4996496;28;20034;-72
2022/07/27 04:54:52;;;;;;;8.85;6.28;;;16.10;99.90;;;;;;4995959;28;20475;-74
2022/07/27 04:57:19;;;;;;;9.30;6.10;;;16.20;99.90;;;;;;4997838;28;20097;-71
2022/07/27 04:59:45;;;;;;;7.63;6.10;;;16.20;99.90;;;;;;4997782;28;20031;-74
2022/07/27 05:02:11;;;;;;;7.13;6.05;;;16.30;99.90;;;;;;4995807;28;20487;-72
2022/07/27 05:04:36;;;;;;;9.55;5.90;;;16.40;99.90;;;;;;4997711;28;20039;-73
2022/07/27 05:07:02;;;;;;;16.00;5.88;;;16.50;99.90;;;;;;4995922;28;20058;-73
2022/07/27 05:09:27;;;;;;;19.25;6.38;;;16.60;99.90;;;;;;4996249;28;20388;-72
2022/07/27 05:11:53;;;;;;;7.95;5.03;;;16.70;99.90;;;;;;4997803;28;20038;-72
2022/07/27 05:14:19;;;;;;;5.57;4.60;;;16.70;99.90;;;;;;4997324;28;20038;-73
2022/07/27 05:16:45;;;;;;;6.50;5.13;;;16.80;99.90;;;;;;4997503;28;20039;-73
2022/07/27 05:19:11;;;;;;;7.30;4.95;;;16.80;99.90;;;;;;4997518;28;20043;-72
2022/07/27 05:21:37;;;;;;;8.43;5.28;;;16.80;99.90;;;;;;4995568;28;20035;-73
2022/07/27 05:24:02;;;;;;;5.97;4.65;;;16.80;99.90;;;;;;4996985;28;20047;-73
2022/07/27 05:26:28;;;;;;;6.35;5.00;;;16.80;99.90;;;;;;4997305;28;20110;-73
2022/07/27 05:28:53;;;;;;;5.93;4.80;;;16.80;99.90;;;;;;4997266;28;20045;-75
2022/07/27 05:31:19;;;;;;;5.93;4.88;;;16.80;99.90;;;;;;4997173;28;20497;-72
2022/07/27 05:33:44;;;;;;;7.22;4.95;;;16.80;99.90;;;;;;4997494;28;20489;-73
2022/07/27 05:36:10;;;;;;;6.45;4.93;;;16.80;99.90;;;;;;4995096;28;20121;-74
2022/07/27 05:38:39;;;;;;;5.68;4.78;;;16.90;99.90;;;;;;4995706;28;20424;-72
2022/07/27 05:41:08;;;;;;;5.80;5.10;;;17.00;99.90;;;;;;4997165;28;20027;-72
2022/07/27 05:43:34;;;;;;;5.13;4.63;;;17.10;99.90;;;;;;4996993;28;20043;-73
2022/07/27 05:46:00;;;;;;;6.68;4.38;;;17.30;99.90;;;;;;4996368;28;20031;-72
2022/07/27 05:48:25;;;;;;;5.18;4.68;;;17.50;99.90;;;;;;4997142;28;20121;-72
2022/07/27 05:50:51;;;;;;;6.68;4.45;;;17.70;99.90;;;;;;4994883;28;20481;-75
2022/07/27 05:53:17;;;;;;;6.38;4.22;;;17.70;99.90;;;;;;4996816;28;20089;-72
2022/07/27 05:55:42;;;;;;;5.00;4.55;;;17.80;99.90;;;;;;4996576;28;20487;-72
2022/07/27 05:58:08;;;;;;;5.78;4.15;;;17.90;99.90;;;;;;4997291;28;20031;-72
2022/07/27 06:00:34;;;;;;;6.18;3.80;;;17.90;99.90;;;;;;4996146;28;20038;-74
2022/07/27 06:02:59;;;;;;;5.13;4.15;;;17.90;99.90;;;;;;4994883;28;20046;-72
2022/07/27 06:05:25;;;;;;;4.35;3.95;;;18.00;99.90;;;;;;4995771;28;20031;-72
2022/07/27 06:08:05;;;;;;;4.88;4.38;;;18.00;99.90;;;;;;4996617;28;20050;-73
2022/07/27 06:10:35;;;;;;;6.53;4.03;;;18.00;99.90;;;;;;4996726;28;20053;-73
2022/07/27 06:13:02;;;;;;;5.20;4.35;;;18.00;99.90;;;;;;4996473;28;20047;-74
2022/07/27 06:15:28;;;;;;;5.40;3.90;;;18.00;99.90;;;;;;4996001;28;20412;-73
2022/07/27 06:17:54;;;;;;;5.05;4.22;;;18.00;99.90;;;;;;4996128;28;20043;-72
2022/07/27 06:20:20;;;;;;;5.32;3.83;;;18.10;99.90;;;;;;4996571;28;20051;-73
2022/07/27 06:22:49;;;;;;;4.22;3.72;;;18.10;99.90;;;;;;4996361;28;20085;-72
2022/07/27 06:25:16;;;;;;;5.00;4.00;;;18.10;99.90;;;;;;4996275;28;20489;-72
2022/07/27 06:27:42;;;;;;;4.72;4.13;;;18.30;99.90;;;;;;4996339;28;20563;-73
2022/07/27 06:30:08;;;;;;;4.93;3.50;;;18.30;99.90;;;;;;4994947;28;20081;-75
2022/07/27 06:32:34;;;;;;;4.20;3.80;;;18.30;99.90;;;;;;4995579;28;20042;-73
2022/07/27 06:35:00;;;;;;;7.57;3.92;;;18.40;99.90;;;;;;4995939;28;20432;-72
2022/07/27 06:37:30;;;;;;;5.88;3.40;;;18.50;99.90;;;;;;4996378;28;20035;-75
2022/07/27 06:39:56;;;;;;;4.97;3.97;;;18.50;99.90;;;;;;4994683;28;20035;-73
2022/07/27 06:42:22;;;;;;;4.72;3.88;;;18.60;99.90;;;;;;4995915;28;20034;-72
2022/07/27 06:44:47;;;;;;;4.53;3.60;;;18.70;99.90;;;;;;4995923;28;20034;-73
2022/07/27 06:47:13;;;;;;;4.95;3.53;;;18.80;99.90;;;;;;4995878;28;20051;-72
2022/07/27 06:49:39;;;;;;;4.60;3.78;;;18.80;99.90;;;;;;4996193;28;20489;-75
2022/07/27 06:52:06;;;;;;;4.47;3.17;;;19.00;99.90;;;;;;4995852;28;20114;-72
2022/07/27 06:54:32;;;;;;;5.93;3.75;;;19.00;99.90;;;;;;4995667;28;20035;-72
2022/07/27 06:56:58;;;;;;;3.85;3.55;;;19.10;99.90;;;;;;4995956;28;20110;-73
2022/07/27 06:59:24;;;;;;;5.45;3.47;;;19.20;99.90;;;;;;4995940;28;20467;-73
2022/07/27 07:01:49;;;;;;;5.32;3.45;;;19.30;99.90;;;;;;4995045;28;20046;-72
2022/07/27 07:04:15;;;;;;;6.38;3.40;;;19.40;99.90;;;;;;4994075;28;20050;-73
2022/07/27 07:06:40;;;;;;;3.83;3.38;;;19.50;99.90;;;;;;4995841;28;20062;-73
2022/07/27 07:09:06;;;;;;;4.18;3.67;;;19.80;99.90;;;;;;4995712;28;20034;-74
2022/07/27 07:11:32;;;;;;;4.68;3.20;;;19.90;99.90;;;;;;4995524;28;20031;-75
2022/07/27 07:13:57;;;;;;;3.70;3.40;;;20.00;99.90;;;;;;4994761;28;20397;-75
2022/07/27 07:16:23;;;;;;;4.68;3.50;;;20.10;99.90;;;;;;4995461;28;20046;-74
2022/07/27 07:18:48;;;;;;;6.75;3.60;;;20.20;99.90;;;;;;4995483;28;20090;-74
2022/07/27 07:21:17;;;;;;;4.32;3.03;;;20.30;99.90;;;;;;4993775;28;20425;-75
2022/07/27 07:23:43;;;;;;;4.85;3.05;;;20.60;99.90;;;;;;4995479;28;20042;-75
2022/07/27 07:26:08;;;;;;;4.05;3.30;;;20.80;99.70;;;;;;4995462;28;20038;-74
2022/07/27 07:28:35;;;;;;;3.20;2.90;;;20.90;99.60;;;;;;4995200;28;20035;-75
2022/07/27 07:31:00;;;;;;;4.68;3.28;;;21.10;98.60;;;;;;4993856;28;20071;-75
2022/07/27 07:33:26;;;;;;;4.10;3.00;;;21.20;98.90;;;;;;4995341;28;20118;-73
2022/07/27 07:35:52;;;;;;;3.60;3.15;;;21.40;98.20;;;;;;4995296;28;20066;-73
2022/07/27 07:38:18;;;;;;;5.18;2.83;;;21.60;97.40;;;;;;4995514;28;20066;-75
2022/07/27 07:40:44;;;;;;;3.53;2.92;;;21.80;97.00;;;;;;4995078;28;20464;-74
2022/07/27 07:43:11;;;;;;;4.70;2.78;;;21.80;96.50;;;;;;4995921;28;20047;-74
2022/07/27 07:45:37;;;;;;;3.70;2.90;;;22.00;96.30;;;;;;4994773;28;20042;-74
2022/07/27 07:48:04;;;;;;;2.97;2.78;;;22.20;96.00;;;;;;4993739;28;20038;-75
2022/07/27 07:50:31;;;;;;;5.97;2.60;;;22.30;95.90;;;;;;4995180;28;20159;-75
2022/07/27 07:52:56;;;;;;;5.30;2.67;;;22.40;95.60;;;;;;4994954;28;20039;-75
2022/07/27 07:55:24;;;;;;;2.58;2.35;;;22.60;95.80;;;;;;4994892;28;20030;-73
2022/07/27 07:57:50;;;;;;;4.63;2.60;;;22.80;94.90;;;;;;4994697;28;20487;-75
2022/07/27 08:00:16;;;;;;;4.85;2.50;;;22.60;94.00;;;;;;4994811;28;20035;-75
2022/07/27 08:02:54;;;;;;;2.90;2.70;;;22.90;94.40;;;;;;4994791;28;20497;-76
2022/07/27 08:05:20;;;;;;;3.15;2.63;;;22.80;94.40;;;;;;4994877;28;20038;-76
2022/07/27 08:07:47;;;;;;;4.72;2.90;;;22.60;94.30;;;;;;4994127;28;20062;-74
2022/07/27 08:10:15;;;;;;;3.30;2.55;;;22.50;94.60;;;;;;4994670;28;20072;-75
2022/07/27 08:12:42;;;;;;;7.15;2.88;;;22.60;94.70;;;;;;4994783;28;20461;-75
2022/07/27 08:15:10;;;;;;;6.65;3.13;;;22.50;94.50;;;;;;4993234;28;20038;-76
2022/07/27 08:17:36;;;;;;;2.95;2.65;;;22.40;95.20;;;;;;4994827;28;20042;-75
2022/07/27 08:20:02;;;;;;;2.78;2.58;;;22.50;94.00;;;;;;4994656;28;20042;-75
2022/07/27 08:22:27;;;;;;;9.18;2.88;;;22.60;94.10;;;;;;4992819;28;20038;-75
2022/07/27 08:24:53;;;;;;;3.20;2.60;;;23.10;93.40;;;;;;4994652;28;20070;-76
2022/07/27 08:27:21;;;;;;;3.03;2.72;;;23.40;93.30;;;;;;4996788;28;20378;-76
2022/07/27 08:29:47;;;;;;;3.10;2.78;;;23.60;92.20;;;;;;4998085;28;20801;-76
2022/07/27 08:32:13;;;;;;;3.08;2.65;;;23.60;91.80;;;;;;4997940;28;20043;-76
2022/07/27 08:34:38;;;;;;;3.47;2.60;;;23.50;91.90;;;;;;4996340;28;20031;-73
2022/07/27 08:37:04;;;;;;;3.30;2.80;;;23.70;92.20;;;;;;4998228;28;20035;-74
2022/07/27 08:39:29;;;;;;;5.85;2.60;;;23.70;91.80;;;;;;4998023;28;20055;-73
2022/07/27 08:41:59;;;;;;;3.15;2.40;;;23.70;91.80;;;;;;4998128;28;20531;-76
2022/07/27 08:44:28;;;;;;;3.28;2.25;;;23.60;91.90;;;;;;4997387;28;20035;-74
2022/07/27 08:46:55;;;;;;;3.47;2.25;;;23.80;91.90;;;;;;4996388;28;20441;-73
2022/07/27 08:49:22;;;;;;;2.63;2.20;;;23.80;91.70;;;;;;4997817;28;20529;-73
2022/07/27 08:51:48;;;;;;;3.90;2.63;;;23.70;91.20;;;;;;4996172;28;20542;-75
2022/07/27 08:54:14;;;;;;;3.15;2.42;;;24.00;90.70;;;;;;4997486;28;20043;-75
2022/07/27 08:56:39;;;;;;;4.30;2.35;;;24.20;90.70;;;;;;4996219;28;20037;-76
2022/07/27 08:59:05;;;;;;;2.42;2.20;;;24.70;89.90;;;;;;4997865;28;20097;-76
2022/07/27 09:01:34;;;;;;;2.38;2.17;;;24.80;88.70;;;;;;4995813;28;20086;-76
2022/07/27 09:03:59;;;;;;;2.63;2.20;;;25.00;88.60;;;;;;4997374;28;20047;-75
2022/07/27 09:06:44;;;;;;;3.00;2.30;;;24.90;87.70;;;;;;4997616;28;20064;-78
2022/07/27 09:09:11;;;;;;;2.67;2.15;;;25.10;87.50;;;;;;4997729;28;20549;-76
2022/07/27 09:11:38;;;;;;;4.68;2.28;;;25.30;88.30;;;;;;4997391;28;20125;-74
2022/07/27 09:14:13;;;;;;;3.88;2.42;;;25.30;86.30;;;;;;4997417;28;20039;-75
2022/07/27 09:16:39;;;;;;;2.85;2.20;;;25.50;85.30;;;;;;4997797;28;20065;-75
2022/07/27 09:19:07;;;;;;;2.65;2.28;;;25.90;83.70;;;;;;4997317;28;20122;-75
2022/07/27 09:21:35;;;;;;;2.50;2.15;;;25.60;84.70;;;;;;4995727;28;20038;-75
2022/07/27 09:24:12;;;;;;;5.53;2.58;;;25.20;85.70;;;;;;4997043;28;20042;-75
2022/07/27 09:26:38;;;;;;;2.35;2.15;;;24.90;85.70;;;;;;4997410;28;20031;-73
2022/07/27 09:29:09;;;;;;;1.98;1.88;;;25.20;85.60;;;;;;4997000;28;20468;-73
2022/07/27 09:31:50;;;;;;;2.60;2.13;;;25.30;84.90;;;;;;4996813;28;20038;-75
2022/07/27 09:34:33;;;;;;;2.33;2.10;;;25.00;83.50;;;;;;4996747;28;20063;-75
2022/07/27 09:37:02;;;;;;;2.67;2.42;;;24.40;86.30;;;;;;4996869;28;20030;-75
2022/07/27 09:39:28;;;;;;;3.35;2.17;;;24.20;86.30;;;;;;4996196;28;20505;-73
2022/07/27 09:42:02;;;;;;;4.65;2.20;;;24.00;87.10;;;;;;4995301;28;20074;-73
2022/07/27 09:44:38;;;;;;;2.35;2.15;;;24.10;86.90;;;;;;4991675;28;20043;-73
2022/07/27 09:47:27;;;;;;;2.65;2.10;;;24.50;84.20;;;;;;4971052;28;20043;-75
2022/07/27 09:50:12;;;;;;;8.48;2.17;;;25.10;82.80;;;;;;4975708;28;20040;-75
2022/07/27 09:52:38;;;;;;;4.00;2.08;;;25.60;81.70;;;;;;4977626;28;20066;-74
2022/07/27 09:55:05;;;;;;;2.22;1.85;;;26.20;80.00;;;;;;4978059;28;20054;-77
2022/07/27 09:57:49;;;;;;;5.00;2.10;;;26.50;78.20;;;;;;4977975;28;20106;-76
2022/07/27 10:00:15;;;;;;;2.67;1.80;;;26.10;78.40;;;;;;4975465;28;20062;-76
2022/07/27 10:02:42;;;;;;;2.17;1.80;;;25.40;79.30;;;;;;4977152;28;20050;-77
2022/07/27 10:05:08;;;;;;;3.05;2.47;;;24.90;81.20;;;;;;4977710;28;20031;-76
2022/07/27 10:07:34;;;;;;;3.53;2.72;;;24.50;81.90;;;;;;4976738;28;20039;-76
2022/07/27 10:10:01;;;;;;;4.13;2.63;;;24.60;81.50;;;;;;4977898;28;20031;-78
2022/07/27 10:12:30;;;;;;;3.28;1.90;;;25.50;81.00;;;;;;4972032;28;20089;-75
2022/07/27 10:14:58;;;;;;;3.53;1.98;;;26.20;79.60;;;;;;4956991;28;20047;-75
2022/07/27 10:17:24;;;;;;;3.72;1.70;;;26.80;78.70;;;;;;4964302;28;20031;-75
2022/07/27 10:19:50;;;;;;;3.00;1.70;;;27.00;76.60;;;;;;4996528;28;20039;-75
2022/07/27 10:22:36;;;;;;;2.75;1.90;;;26.90;76.10;;;;;;4994375;28;20476;-75
2022/07/27 10:25:01;;;;;;;2.75;1.73;;;26.80;75.60;;;;;;4994818;28;20488;-75
2022/07/27 10:27:28;;;;;;;1.90;1.50;;;26.30;76.10;;;;;;4994937;28;20037;-75
2022/07/27 10:29:55;;;;;;;4.40;1.92;;;26.60;75.00;;;;;;4995688;28;20054;-75
2022/07/27 10:32:27;;;;;;;2.08;1.38;;;26.60;74.90;;;;;;4995255;28;20035;-75
2022/07/27 10:34:53;;;;;;;4.28;1.73;;;27.00;73.80;;;;;;4991161;28;20047;-75
2022/07/27 10:37:27;;;;;;;1.90;1.70;;;27.40;71.70;;;;;;4962508;28;20040;-75
2022/07/27 10:42:43;;;;;;;5.18;1.65;;;27.20;74.70;;;;;;4957515;28;20588;-76
2022/07/27 10:45:14;;;;;;;2.72;1.50;;;27.20;72.10;;;;;;4955543;28;20035;-75
2022/07/27 10:47:47;;;;;;;2.20;1.50;;;26.60;73.00;;;;;;4957447;28;20426;-75
2022/07/27 10:50:15;;;;;;;4.20;1.65;;;26.60;73.90;;;;;;4964912;28;20031;-75
2022/07/27 10:52:46;;;;;;;2.30;1.58;;;26.40;73.90;;;;;;4976072;28;20060;-75
2022/07/27 10:55:35;;;;;;;3.72;1.45;;;26.10;74.40;;;;;;4976171;28;20031;-75
2022/07/27 10:58:13;;;;;;;2.78;1.58;;;25.70;76.50;;;;;;4975243;28;20032;-75
2022/07/27 11:00:48;;;;;;;3.08;1.38;;;26.30;76.20;;;;;;4975837;28;20493;-75
2022/07/27 11:03:25;;;;;;;2.33;1.40;;;27.00;73.60;;;;;;4975836;28;20122;-75
2022/07/27 11:05:58;;;;;;;2.75;1.90;;;27.60;70.80;;;;;;4975777;28;20035;-75
2022/07/27 11:08:32;;;;;;;2.15;1.30;;;28.40;68.60;;;;;;4974558;28;20039;-75
2022/07/27 11:10:59;;;;;;;2.97;1.38;;;28.60;67.70;;;;;;4974255;28;20039;-75
2022/07/27 11:13:26;;;;;;;1.75;1.40;;;29.20;65.70;;;;;;4975381;28;20111;-75
2022/07/27 11:15:57;;;;;;;2.97;1.42;;;28.90;64.80;;;;;;4974282;28;20512;-75
2022/07/27 11:18:32;;;;;;;2.83;1.60;;;28.20;66.50;;;;;;4976025;28;20159;-75
2022/07/27 11:21:18;;;;;;;1.73;1.52;;;27.80;66.90;;;;;;4975718;28;20035;-74
2022/07/27 11:23:46;;;;;;;3.92;1.65;;;27.30;67.70;;;;;;4975887;28;20488;-74
2022/07/27 11:26:12;;;;;;;1.52;1.40;;;27.00;68.80;;;;;;4975816;28;20039;-74
2022/07/27 11:28:38;;;;;;;1.88;1.42;;;26.50;69.30;;;;;;4976031;28;20039;-74
2022/07/27 11:31:06;;;;;;;2.45;1.50;;;26.10;68.40;;;;;;4975931;28;20039;-74
2022/07/27 11:33:32;;;;;;;3.30;1.50;;;26.60;68.90;;;;;;4976055;28;20528;-74
2022/07/27 11:36:03;;;;;;;3.67;1.40;;;27.10;66.30;;;;;;4975638;28;20035;-74
2022/07/27 11:38:42;;;;;;;1.92;1.52;;;28.10;66.00;;;;;;4975767;28;20093;-74
2022/07/27 11:41:09;;;;;;;2.08;1.30;;;28.70;64.10;;;;;;4975826;28;20066;-74
2022/07/27 11:43:39;;;;;;;2.80;1.45;;;27.80;65.70;;;;;;4974108;28;20516;-74
2022/07/27 11:46:22;;;;;;;3.40;1.60;;;26.70;67.80;;;;;;4975594;28;20485;-74
2022/07/27 11:48:56;;;;;;;1.52;1.40;;;26.20;69.90;;;;;;4976344;28;20060;-77
2022/07/27 11:51:22;;;;;;;4.20;1.40;;;27.10;69.80;;;;;;4975337;28;20035;-74
2022/07/27 11:53:54;;;;;;;2.75;1.25;;;27.80;67.10;;;;;;4974188;28;20062;-74
2022/07/27 11:56:24;;;;;;;2.40;1.40;;;28.60;65.30;;;;;;4975565;28;20489;-74
2022/07/27 11:59:00;;;;;;;2.05;1.40;;;29.10;64.60;;;;;;4975630;28;20102;-74
2022/07/27 12:01:35;;;;;;;3.13;1.40;;;28.30;62.40;;;;;;4974514;28;20039;-74
2022/07/27 12:04:09;;;;;;;3.20;1.60;;;28.00;64.20;;;;;;4975196;28;20049;-74
2022/07/27 12:06:35;;;;;;;4.57;1.40;;;27.70;64.10;;;;;;4975905;28;20027;-75
2022/07/27 12:09:02;;;;;;;1.77;1.40;;;27.50;66.50;;;;;;4971941;28;20091;-75
2022/07/27 12:11:43;;;;;;;2.78;1.50;;;27.30;64.60;;;;;;4974144;28;20031;-76
2022/07/27 12:14:13;;;;;;;2.65;1.38;;;28.20;65.80;;;;;;4973101;28;20065;-75
2022/07/27 12:16:39;;;;;;;1.80;1.33;;;28.60;61.50;;;;;;4975062;28;20401;-76
2022/07/27 12:19:05;;;;;;;1.40;1.30;;;28.70;60.60;;;;;;4975122;28;20070;-75
2022/07/27 12:21:31;;;;;;;2.95;1.50;;;29.40;61.50;;;;;;4974867;28;20040;-75
2022/07/27 12:23:57;;;;;;;1.40;1.30;;;29.40;59.60;;;;;;4974651;28;20031;-75
2022/07/27 12:26:26;;;;;;;2.88;1.30;;;30.40;58.00;;;;;;4975028;28;20062;-77
2022/07/27 12:29:17;;;;;;;3.08;1.50;;;31.00;57.50;;;;;;4974601;28;20035;-74
2022/07/27 12:31:48;;;;;;;2.85;1.50;;;31.50;57.20;;;;;;4975493;28;20078;-74
2022/07/27 12:34:14;;;;;;;1.42;0.95;;;30.80;58.40;;;;;;4974520;28;20027;-74
2022/07/27 12:36:41;;;;;;;1.85;1.38;;;31.10;59.70;;;;;;4974740;28;20031;-75
2022/07/27 12:39:07;;;;;;;3.30;1.40;;;30.90;57.60;;;;;;4974648;28;20075;-76
2022/07/27 12:41:38;;;;;;;2.78;1.50;;;30.90;56.70;;;;;;4974592;28;20043;-75
2022/07/27 12:44:07;;;;;;;2.97;1.30;;;30.00;59.50;;;;;;4974520;28;20074;-76
2022/07/27 12:46:33;;;;;;;1.92;1.33;;;29.30;59.60;;;;;;4973006;28;20138;-75
2022/07/27 12:48:59;;;;;;;2.85;1.33;;;29.00;61.00;;;;;;4974839;28;20034;-75
2022/07/27 12:51:25;;;;;;;4.40;1.48;;;28.70;59.40;;;;;;4973027;28;20434;-75
2022/07/27 12:53:51;;;;;;;2.72;1.77;;;28.20;60.30;;;;;;4974981;28;20035;-76
2022/07/27 12:56:16;;;;;;;2.65;1.50;;;28.20;61.20;;;;;;4974263;28;20039;-77
2022/07/27 12:58:59;;;;;;;2.15;1.40;;;28.10;63.90;;;;;;4974935;28;20046;-77
2022/07/27 13:01:24;;;;;;;3.00;1.70;;;28.00;62.50;;;;;;4974516;28;20524;-79
2022/07/27 13:03:50;;;;;;;2.65;1.30;;;28.30;63.20;;;;;;4974956;28;20050;-77
2022/07/27 13:06:15;;;;;;;2.13;1.30;;;28.30;62.40;;;;;;4974096;28;20087;-77
2022/07/27 13:08:41;;;;;;;1.98;1.30;;;28.30;64.20;;;;;;4973538;28;20027;-76
2022/07/27 13:11:10;;;;;;;2.92;1.38;;;29.40;62.70;;;;;;4973128;28;20049;-76
2022/07/27 13:13:36;;;;;;;1.45;1.30;;;30.50;59.20;;;;;;4976983;28;20539;-76
2022/07/27 13:16:01;;;;;;;2.35;1.48;;;31.10;56.70;;;;;;4977827;28;20095;-76
2022/07/27 13:18:27;;;;;;;4.20;1.40;;;31.40;57.80;;;;;;4978216;28;20485;-75
2022/07/27 13:20:53;;;;;;;2.97;1.42;;;31.60;57.20;;;;;;4977634;28;20382;-76
2022/07/27 13:23:19;;;;;;;2.17;1.20;;;32.40;57.40;;;;;;4977794;28;20086;-76
2022/07/27 13:25:44;;;;;;;3.58;1.23;;;32.60;54.10;;;;;;4976135;28;20035;-76
2022/07/27 13:28:10;;;;;;;1.15;1.00;;;32.60;53.80;;;;;;4976421;28;20031;-76
2022/07/27 13:30:39;;;;;;;2.55;1.40;;;31.40;53.70;;;;;;4976174;28;20036;-76
2022/07/27 13:33:04;;;;;;;1.42;1.25;;;30.30;56.70;;;;;;4977562;28;20059;-76
2022/07/27 13:35:32;;;;;;;2.58;1.40;;;30.60;56.70;;;;;;4977430;28;20054;-76
2022/07/27 13:37:58;;;;;;;2.03;1.25;;;31.70;56.10;;;;;;4978049;28;20097;-76
2022/07/27 13:40:24;;;;;;;2.03;1.42;;;32.40;54.10;;;;;;4977405;28;20046;-76
2022/07/27 13:42:49;;;;;;;2.40;1.20;;;32.10;54.80;;;;;;4976082;28;20098;-76
2022/07/27 13:45:15;;;;;;;1.98;1.10;;;33.40;51.80;;;;;;4977020;28;20047;-76
2022/07/27 13:47:41;;;;;;;2.33;1.10;;;34.50;49.60;;;;;;4978630;28;20035;-76
2022/07/27 13:50:12;;;;;;;1.63;1.30;;;34.40;49.40;;;;;;4976466;28;20043;-76
2022/07/27 13:52:37;;;;;;;1.70;1.20;;;34.00;50.10;;;;;;4977643;28;20500;-76
2022/07/27 13:55:03;;;;;;;1.70;1.30;;;33.50;49.00;;;;;;4975674;28;20039;-76
2022/07/27 13:57:29;;;;;;;2.60;1.50;;;32.40;50.70;;;;;;4976364;28;20031;-76
2022/07/27 13:59:56;;;;;;;1.70;1.15;;;31.30;53.50;;;;;;4980187;28;20126;-75
2022/07/27 14:02:21;;;;;;;3.17;1.50;;;31.60;53.10;;;;;;4975851;28;20047;-75
2022/07/27 14:04:47;;;;;;;4.07;1.25;;;32.90;51.20;;;;;;4977519;28;20434;-75
2022/07/27 14:07:13;;;;;;;1.77;1.20;;;34.40;50.80;;;;;;4976210;28;20106;-75
2022/07/27 14:12:23;;;;;;;2.83;1.20;;;35.70;46.60;;;;;;4977182;28;20035;-76
2022/07/27 14:14:48;;;;;;;2.97;1.25;;;36.20;46.50;;;;;;4977902;28;20421;-76
2022/07/27 14:17:14;;;;;;;2.63;1.30;;;36.70;47.30;;;;;;4982970;28;20039;-76
2022/07/27 14:19:39;;;;;;;2.38;1.17;;;36.50;44.30;;;;;;4977866;28;20043;-76
2022/07/27 14:22:09;;;;;;;1.33;1.20;;;34.70;47.20;;;;;;4976896;28;20114;-76
2022/07/27 14:24:35;;;;;;;1.55;1.20;;;33.60;49.70;;;;;;4975149;28;20130;-76
2022/07/27 14:27:01;;;;;;;1.92;1.60;;;31.40;50.60;;;;;;4977134;28;20027;-76
2022/07/27 14:29:26;;;;;;;3.50;1.20;;;30.20;53.90;;;;;;4976875;28;20509;-76
2022/07/27 14:31:52;;;;;;;3.58;1.30;;;29.60;56.40;;;;;;4976694;28;20504;-75
2022/07/27 14:34:17;;;;;;;2.83;1.17;;;30.90;54.30;;;;;;4977057;28;20043;-79
2022/07/27 14:36:43;;;;;;;4.20;1.50;;;30.60;54.20;;;;;;4975679;28;20043;-76
2022/07/27 14:39:09;;;;;;;4.55;1.63;;;30.30;54.70;;;;;;4976394;28;20039;-76
2022/07/27 14:41:34;;;;;;;2.08;1.20;;;30.10;55.70;;;;;;4975287;28;20046;-76
2022/07/27 14:44:00;;;;;;;4.10;1.50;;;32.40;52.70;;;;;;4976719;28;20043;-77
2022/07/27 14:46:26;;;;;;;3.63;1.25;;;33.90;51.30;;;;;;4976579;28;20035;-76
2022/07/27 14:48:51;;;;;;;2.92;1.45;;;35.00;47.80;;;;;;4976968;28;20075;-77
2022/07/27 14:51:17;;;;;;;2.55;1.20;;;36.10;45.50;;;;;;4976944;28;20039;-76
2022/07/27 14:53:42;;;;;;;3.67;1.50;;;36.40;46.10;;;;;;4976581;28;20123;-76
2022/07/27 14:56:08;;;;;;;3.42;1.25;;;37.20;44.00;;;;;;4977041;28;20490;-76
2022/07/27 14:58:33;;;;;;;3.55;1.20;;;36.60;44.30;;;;;;4976986;28;20043;-80
2022/07/27 15:00:59;;;;;;;2.50;1.13;;;35.50;45.40;;;;;;4976621;28;20442;-79
2022/07/27 15:03:25;;;;;;;2.85;1.40;;;33.70;46.90;;;;;;4978346;28;20050;-80
2022/07/27 15:05:50;;;;;;;3.17;1.42;;;32.00;49.20;;;;;;4975667;28;20037;-77
2022/07/27 15:08:19;;;;;;;4.03;1.30;;;30.40;52.80;;;;;;4975574;28;20102;-78
2022/07/27 15:10:45;;;;;;;1.58;1.17;;;28.80;55.40;;;;;;4976184;28;20542;-78
2022/07/27 15:13:12;;;;;;;3.83;1.48;;;28.40;58.50;;;;;;4976573;28;20520;-81
2022/07/27 15:15:37;;;;;;;3.25;1.25;;;30.10;55.30;;;;;;4975430;28;20062;-77
2022/07/27 15:18:03;;;;;;;3.22;1.30;;;31.80;52.10;;;;;;4972387;28;20071;-77
2022/07/27 15:20:29;;;;;;;3.35;1.27;;;32.50;50.40;;;;;;4970547;28;20031;-84
2022/07/27 15:22:54;;;;;;;3.33;1.35;;;33.00;51.10;;;;;;4978726;28;20071;-79
2022/07/27 15:25:20;;;;;;;1.83;1.30;;;34.50;49.80;;;;;;4977809;28;20039;-77
2022/07/27 15:27:45;;;;;;;1.83;1.40;;;34.10;46.60;;;;;;4976932;28;20039;-79
2022/07/27 15:30:11;;;;;;;1.30;1.17;;;32.70;49.30;;;;;;4959618;28;20406;-78
2022/07/27 15:32:37;;;;;;;2.60;1.27;;;31.40;50.40;;;;;;4958488;28;20809;-78
2022/07/27 15:35:03;;;;;;;2.67;1.25;;;31.50;50.80;;;;;;4958765;28;20028;-78
2022/07/27 15:37:28;;;;;;;4.03;1.45;;;32.30;49.80;;;;;;4959880;28;20039;-76
2022/07/27 15:39:54;;;;;;;7.03;1.23;;;33.60;50.60;;;;;;4963165;28;20035;-78
2022/07/27 15:42:20;;;;;;;1.58;1.10;;;34.60;47.10;;;;;;4979096;28;20138;-78
2022/07/27 15:44:46;;;;;;;2.92;1.40;;;35.40;45.80;;;;;;4977909;28;20032;-78
2022/07/27 15:47:11;;;;;;;2.85;1.25;;;34.30;45.70;;;;;;4978253;28;20416;-78
2022/07/27 15:49:37;;;;;;;3.60;1.15;;;32.60;48.10;;;;;;4979681;28;20071;-78
2022/07/27 15:52:03;;;;;;;3.83;1.30;;;31.70;50.70;;;;;;4978106;28;20397;-81
2022/07/27 15:54:29;;;;;;;2.10;1.35;;;30.40;51.90;;;;;;4978223;28;20036;-81
2022/07/27 15:56:55;;;;;;;2.72;1.23;;;30.70;53.70;;;;;;4975941;28;20031;-76
2022/07/27 15:59:20;;;;;;;3.72;1.30;;;32.80;51.00;;;;;;4974677;28;20058;-75
2022/07/27 16:01:46;;;;;;;4.60;1.33;;;35.00;47.10;;;;;;4958034;28;20472;-76
2022/07/27 16:04:12;;;;;;;1.98;1.17;;;36.10;44.20;;;;;;4955918;28;20533;-76
2022/07/27 16:06:39;;;;;;;3.85;1.05;;;37.10;43.30;;;;;;4956265;28;20371;-82
2022/07/27 16:09:05;;;;;;;2.90;1.15;;;37.60;43.10;;;;;;4955164;28;20036;-77
2022/07/27 16:11:31;;;;;;;3.67;1.15;;;36.80;43.30;;;;;;4970430;28;20598;-76
2022/07/27 16:13:56;;;;;;;3.40;1.20;;;36.60;44.60;;;;;;4972899;28;20118;-78
2022/07/27 16:16:28;;;;;;;2.67;1.20;;;37.10;43.90;;;;;;4976708;28;20082;-81
2022/07/27 16:18:56;;;;;;;3.33;1.40;;;37.60;41.70;;;;;;4974315;28;20098;-81
2022/07/27 16:21:23;;;;;;;3.05;1.50;;;37.60;41.00;;;;;;4961009;28;20825;-76
2022/07/27 16:23:53;;;;;;;1.77;1.15;;;37.70;41.70;;;;;;4955105;28;20044;-76
2022/07/27 16:26:20;;;;;;;3.63;1.30;;;38.30;40.90;;;;;;4954646;28;20043;-80
2022/07/27 16:28:48;;;;;;;3.45;1.23;;;38.80;40.30;;;;;;4983550;23;20039;-78
2022/07/27 16:31:17;;;;;;;2.95;1.30;;;37.60;40.80;;;;;;4976708;28;20047;-76
2022/07/27 16:33:43;;;;;;;2.85;1.40;;;36.90;41.50;;;;;;4974199;28;20036;-81
2022/07/27 16:36:10;;;;;;;2.47;1.30;;;36.40;41.70;;;;;;4974712;28;20047;-75
2022/07/27 16:38:37;;;;;;;3.97;1.40;;;35.10;43.00;;;;;;4975341;28;20479;-79
2022/07/27 16:41:06;;;;;;;1.98;1.30;;;34.50;45.10;;;;;;4963187;28;20102;-74
2022/07/27 16:43:32;;;;;;;3.05;1.52;;;33.30;45.40;;;;;;4956256;28;20132;-74
2022/07/27 16:46:01;;;;;;;3.45;1.55;;;32.40;47.80;;;;;;4956495;28;20036;-76
2022/07/27 16:48:30;;;;;;;3.17;1.30;;;31.30;48.30;;;;;;4957738;28;20034;-76
2022/07/27 16:50:56;;;;;;;2.03;1.27;;;30.50;50.30;;;;;;4967132;28;20444;-76
2022/07/27 16:53:21;;;;;;;2.83;1.45;;;30.10;51.60;;;;;;4979679;28;20073;-75
2022/07/27 16:55:47;;;;;;;3.35;1.50;;;29.90;51.30;;;;;;4967652;28;20065;-81